Time;durP1;ratioP1;P1;durP2;ratioP2;P2;SDS_P1;SDS_P2;PMS_P1;PMS_P2;Temp;Humidity;BMP_temperature;BMP_pressure;BME280_temperature;BME280_humidity;BME280_pressure;Samples;Min_cycle;Max_cycle;Signal;HPM_P1;HPM_P2
2022/04/01 04:13:10;;;;;;;;;;;;;;;5.83;66.26;94871.06;4239595;27;10218;-62
2022/04/01 04:15:12;;;;;;;;;;;;;;;5.63;66.02;94859.06;4229067;28;6148;-62
2022/04/01 04:17:40;;;;;;;;;;;;;;;5.77;66.50;94866.66;4228484;28;5809;-61
2022/04/01 04:20:20;;;;;;;;;;;;;;;5.84;66.55;94866.63;4229710;28;5660;-61
2022/04/01 04:22:48;;;;;;;;;;;;;;;5.75;66.31;94870.50;4149183;28;5875;-61
2022/04/01 04:25:10;;;;;;;;;;;;;;;5.74;66.37;94868.91;4162239;28;5723;-61
2022/04/01 04:27:15;;;;;;;;;;;;;;;5.55;66.85;94873.25;4160845;28;5699;-61
2022/04/01 04:29:18;;;;;;;;;;;;;;;5.45;67.43;94878.13;4162271;28;5703;-61
2022/04/01 04:31:26;;;;;;;;;;;;;;;5.54;67.27;94876.84;4162018;28;5715;-61
2022/04/01 04:33:29;;;;;;;;;;;;;;;5.39;68.18;94874.50;4158991;28;6527;-63
2022/04/01 04:35:35;;;;;;;;;;;;;;;5.53;67.44;94870.81;4160681;28;5723;-61
2022/04/01 04:37:44;;;;;;;;;;;;;;;5.60;67.22;94873.41;4162005;28;5782;-61
2022/04/01 04:39:49;;;;;;;;;;;;;;;5.82;66.77;94868.66;4161705;28;5849;-61
2022/04/01 04:41:51;;;;;;;;;;;;;;;5.98;66.40;94876.06;4160462;28;5707;-61
2022/04/01 04:43:53;;;;;;;;;;;;;;;5.80;66.80;94876.75;4145603;28;6448;-61
2022/04/01 04:45:59;;;;;;;;;;;;;;;5.81;66.92;94872.31;4160238;28;5734;-61
2022/04/01 04:48:02;;;;;;;;;;;;;;;5.87;66.97;94870.66;4161258;28;5723;-61
2022/04/01 04:50:05;;;;;;;;;;;;;;;5.64;67.44;94869.34;4146758;28;5810;-62
2022/04/01 04:52:08;;;;;;;;;;;;;;;5.38;68.50;94866.84;4145388;28;5722;-61
2022/04/01 04:54:10;;;;;;;;;;;;;;;5.36;68.42;94874.13;4161418;28;5807;-61
2022/04/01 04:56:13;;;;;;;;;;;;;;;5.35;68.24;94872.53;4157608;28;5889;-61
2022/04/01 04:58:17;;;;;;;;;;;;;;;5.26;68.53;94875.34;4148259;28;6477;-61
2022/04/01 05:00:21;;;;;;;;;;;;;;;5.19;68.74;94879.81;4211385;28;5684;-61
2022/04/01 05:02:42;;;;;;;;;;;;;;;5.44;68.41;94881.75;4211579;28;5760;-60
2022/04/01 05:05:07;;;;;;;;;;;;;;;5.18;68.67;94885.25;4227605;28;5819;-61
2022/04/01 05:07:42;;;;;;;;;;;;;;;5.07;69.28;94891.13;4224124;28;5719;-61
2022/04/01 05:10:07;;;;;;;;;;;;;;;5.03;69.04;94893.34;4229375;28;6381;-62
2022/04/01 05:12:46;;;;;;;;;;;;;;;4.92;69.37;94899.22;4228355;28;5679;-61
2022/04/01 05:15:04;;;;;;;;;;;;;;;4.91;69.72;94897.59;4172464;28;5679;-60
2022/04/01 05:17:15;;;;;;;;;;;;;;;5.09;68.72;94903.00;4216853;28;5711;-61
2022/04/01 05:19:24;;;;;;;;;;;;;;;5.23;68.44;94901.97;4214151;28;5875;-61
2022/04/01 05:21:31;;;;;;;;;;;;;;;5.11;68.71;94895.75;4211438;28;5760;-61
2022/04/01 05:23:59;;;;;;;;;;;;;;;5.26;68.62;94900.75;4206004;28;5699;-61
2022/04/01 05:26:11;;;;;;;;;;;;;;;5.04;69.00;94913.28;4202781;28;6473;-61
2022/04/01 05:28:22;;;;;;;;;;;;;;;5.30;67.79;94917.66;4215666;28;5663;-57
2022/04/01 05:30:29;;;;;;;;;;;;;;;4.99;68.30;94918.34;4216971;28;5817;-59
2022/04/01 05:32:37;;;;;;;;;;;;;;;4.94;67.80;94910.28;4207042;28;6326;-59
2022/04/01 05:34:43;;;;;;;;;;;;;;;4.72;67.74;94924.59;4214270;28;5698;-59
2022/04/01 05:36:46;;;;;;;;;;;;;;;4.55;67.70;94922.41;4208359;28;5751;-58
2022/04/01 05:38:48;;;;;;;;;;;;;;;4.63;67.94;94924.00;4204166;28;5878;-59
2022/04/01 05:40:50;;;;;;;;;;;;;;;4.57;67.80;94920.38;4217979;28;5675;-59
2022/04/01 05:42:53;;;;;;;;;;;;;;;4.59;67.89;94926.22;4214999;28;5671;-58
2022/04/01 05:44:56;;;;;;;;;;;;;;;4.64;67.60;94926.44;4212772;28;5672;-59
2022/04/01 05:46:58;;;;;;;;;;;;;;;4.63;67.60;94937.88;4216292;28;5710;-58
2022/04/01 05:49:00;;;;;;;;;;;;;;;4.44;67.20;94937.91;4215921;28;5664;-58
2022/04/01 05:51:04;;;;;;;;;;;;;;;4.57;67.45;94941.31;4217818;28;5675;-59
2022/04/01 05:53:08;;;;;;;;;;;;;;;4.65;66.83;94938.50;4206489;28;5217;-59
2022/04/01 05:55:11;;;;;;;;;;;;;;;4.50;67.61;94945.75;4203254;28;7729;-58
2022/04/01 05:57:18;;;;;;;;;;;;;;;4.37;67.54;94949.16;4206516;28;5675;-58
2022/04/01 05:59:23;;;;;;;;;;;;;;;4.56;67.12;94952.81;4199875;28;5732;-58
2022/04/01 06:01:40;;;;;;;;;;;;;;;4.66;65.92;94945.34;4206858;28;5696;-58
2022/04/01 06:03:54;;;;;;;;;;;;;;;4.46;66.67;94952.38;4201026;28;5709;-59
2022/04/01 06:06:05;;;;;;;;;;;;;;;4.40;66.90;94958.41;4201289;28;5871;-59
2022/04/01 06:08:44;;;;;;;;;;;;;;;4.57;66.04;94964.88;4201690;28;5775;-59
2022/04/01 06:11:04;;;;;;;;;;;;;;;4.49;65.71;94959.84;4214264;28;5706;-59
2022/04/01 06:13:19;;;;;;;;;;;;;;;4.56;66.06;94963.28;4209424;28;5756;-59
2022/04/01 06:15:42;;;;;;;;;;;;;;;4.43;65.17;94963.25;4216761;28;5635;-59
2022/04/01 06:18:06;;;;;;;;;;;;;;;4.39;66.02;94969.88;4217864;28;5768;-59
2022/04/01 06:20:08;;;;;;;;;;;;;;;4.66;65.09;94979.38;4217857;28;5679;-59
2022/04/01 06:22:20;;;;;;;;;;;;;;;4.38;65.17;94981.34;4217602;28;5751;-59
2022/04/01 06:24:50;;;;;;;;;;;;;;;4.30;65.15;94984.97;4217159;28;5864;-58
2022/04/01 06:26:57;;;;;;;;;;;;;;;4.53;64.56;94997.69;4217115;28;5675;-59
2022/04/01 06:29:16;;;;;;;;;;;;;;;4.70;64.72;95002.53;4217588;28;5791;-59
2022/04/01 06:31:25;;;;;;;;;;;;;;;4.78;64.26;95010.19;4209339;28;5666;-59
2022/04/01 06:33:59;;;;;;;;;;;;;;;4.80;64.56;95016.03;4217623;28;5909;-59
2022/04/01 06:36:04;;;;;;;;;;;;;;;4.72;63.49;95021.47;4205428;28;5700;-59
2022/04/01 06:38:12;;;;;;;;;;;;;;;4.74;63.95;95028.09;4200831;28;5692;-59
2022/04/01 06:40:55;;;;;;;;;;;;;;;4.92;63.61;95030.13;4199322;28;5634;-59
2022/04/01 06:42:57;;;;;;;;;;;;;;;4.52;63.14;95044.97;4200747;28;5748;-59
2022/04/01 06:44:59;;;;;;;;;;;;;;;4.38;62.57;95050.19;4200841;28;5717;-59
2022/04/01 06:47:01;;;;;;;;;;;;;;;4.46;63.30;95051.81;4200776;28;5691;-59
2022/04/01 06:49:08;;;;;;;;;;;;;;;4.60;62.90;95044.78;4200297;28;5692;-59
2022/04/01 06:51:11;;;;;;;;;;;;;;;4.36;63.02;95052.19;4200914;28;5712;-59
2022/04/01 06:53:13;;;;;;;;;;;;;;;4.12;63.72;95059.75;4200478;28;5695;-59
2022/04/01 06:55:18;;;;;;;;;;;;;;;4.31;63.71;95069.50;4200656;28;5688;-59
2022/04/01 06:57:20;;;;;;;;;;;;;;;4.38;62.81;95065.06;4216535;28;5790;-59
2022/04/01 06:59:22;;;;;;;;;;;;;;;3.94;63.09;95073.34;4217033;28;5667;-59
2022/04/01 07:01:25;;;;;;;;;;;;;;;4.01;63.35;95082.84;4216670;28;5869;-59
2022/04/01 07:03:27;;;;;;;;;;;;;;;4.04;63.46;95079.81;4216226;28;5783;-59
2022/04/01 07:05:28;;;;;;;;;;;;;;;4.06;63.44;95077.81;4216794;28;5671;-59
2022/04/01 07:07:48;;;;;;;;;;;;;;;4.25;63.48;95086.75;4217401;28;5654;-59
2022/04/01 07:09:50;;;;;;;;;;;;;;;4.27;62.69;95084.75;4210907;28;5686;-59
2022/04/01 07:11:53;;;;;;;;;;;;;;;4.05;63.20;95097.13;4214388;28;6066;-59
2022/04/01 07:13:59;;;;;;;;;;;;;;;3.85;63.56;95095.41;4216331;28;5726;-59
2022/04/01 07:16:01;;;;;;;;;;;;;;;3.89;63.74;95115.75;4215452;28;5835;-59
2022/04/01 07:18:02;;;;;;;;;;;;;;;3.93;63.13;95119.59;4216605;28;5696;-59
2022/04/01 07:20:05;;;;;;;;;;;;;;;4.20;63.19;95122.38;4216610;28;5738;-59
2022/04/01 07:22:38;;;;;;;;;;;;;;;4.39;62.63;95134.72;4216629;28;5795;-62
2022/04/01 07:24:42;;;;;;;;;;;;;;;5.08;64.44;95121.41;4214627;28;5675;-62
2022/04/01 07:26:45;;;;;;;;;;;;;;;4.66;60.72;95133.81;4217105;28;5781;-62
2022/04/01 07:28:47;;;;;;;;;;;;;;;4.70;60.47;95130.81;4216695;28;5652;-63
2022/04/01 07:33:35;;;;;;;;;;;;;;;4.00;61.92;95136.13;4215316;28;5689;-60
2022/04/01 07:35:37;;;;;;;;;;;;;;;4.06;62.38;95140.59;4213934;28;5711;-60
2022/04/01 07:37:41;;;;;;;;;;;;;;;4.17;61.82;95151.50;4213209;28;5696;-60
2022/04/01 07:39:54;;;;;;;;;;;;;;;4.20;61.46;95157.19;4199757;28;5719;-60
2022/04/01 07:41:56;;;;;;;;;;;;;;;4.20;61.58;95140.69;4199371;28;5712;-60
2022/04/01 07:43:58;;;;;;;;;;;;;;;4.27;61.24;95151.97;4210265;28;5730;-60
2022/04/01 07:46:03;;;;;;;;;;;;;;;4.15;60.66;95153.50;4213531;28;5684;-60
2022/04/01 07:48:07;;;;;;;;;;;;;;;3.94;61.14;95160.44;4216305;28;5770;-60
2022/04/01 07:50:10;;;;;;;;;;;;;;;3.93;61.27;95161.44;4201483;28;6345;-60
2022/04/01 07:52:17;;;;;;;;;;;;;;;3.86;60.77;95168.44;4182187;28;5751;-60
2022/04/01 07:54:21;;;;;;;;;;;;;;;3.88;61.05;95174.28;4199614;28;5676;-60
2022/04/01 07:56:30;;;;;;;;;;;;;;;4.01;61.29;95173.56;4199562;28;6347;-61
2022/04/01 07:58:32;;;;;;;;;;;;;;;3.53;61.55;95181.25;4207495;28;6385;-60
2022/04/01 08:00:34;;;;;;;;;;;;;;;3.63;61.88;95186.16;4199431;28;5862;-60
2022/04/01 08:02:36;;;;;;;;;;;;;;;3.93;61.02;95187.56;4207794;28;6309;-59
2022/04/01 08:04:38;;;;;;;;;;;;;;;3.72;61.73;95185.00;4216003;28;6420;-60
2022/04/01 08:06:46;;;;;;;;;;;;;;;3.37;61.90;95195.38;4216425;28;5813;-60
2022/04/01 08:08:48;;;;;;;;;;;;;;;3.47;62.25;95201.09;4216399;28;6406;-60
2022/04/01 08:10:51;;;;;;;;;;;;;;;3.37;61.82;95197.19;4216224;28;5671;-60
2022/04/01 08:12:55;;;;;;;;;;;;;;;3.47;61.90;95214.16;4216070;28;5796;-60
2022/04/01 08:14:58;;;;;;;;;;;;;;;3.56;62.32;95216.66;4216205;28;5664;-60
2022/04/01 08:17:00;;;;;;;;;;;;;;;2.99;63.25;95210.47;4215080;28;5628;-67
2022/04/01 08:19:03;;;;;;;;;;;;;;;2.99;64.82;95220.09;4215764;28;5759;-62
2022/04/01 08:21:05;;;;;;;;;;;;;;;3.34;63.87;95224.47;4215956;28;5668;-61
2022/04/01 08:23:09;;;;;;;;;;;;;;;3.29;63.09;95224.25;4216443;28;6029;-60
2022/04/01 08:25:11;;;;;;;;;;;;;;;3.32;63.79;95242.16;4215127;28;5651;-60
2022/04/01 08:27:14;;;;;;;;;;;;;;;3.54;61.71;95250.00;4216401;28;5105;-60
2022/04/01 08:29:16;;;;;;;;;;;;;;;3.33;62.88;95245.56;4216225;28;5664;-60
2022/04/01 08:31:19;;;;;;;;;;;;;;;3.40;62.12;95257.72;4213956;28;5615;-60
2022/04/01 08:33:21;;;;;;;;;;;;;;;3.20;62.97;95254.09;4214575;28;5632;-61
2022/04/01 08:35:23;;;;;;;;;;;;;;;3.29;63.20;95257.41;4215945;28;5799;-61
2022/04/01 08:37:25;;;;;;;;;;;;;;;3.13;64.21;95264.44;4214923;28;5647;-60
2022/04/01 08:39:29;;;;;;;;;;;;;;;3.30;63.13;95270.25;4216205;28;5912;-60
2022/04/01 08:41:31;;;;;;;;;;;;;;;3.02;62.92;95272.75;4215882;28;5692;-60
2022/04/01 08:43:39;;;;;;;;;;;;;;;3.39;61.12;95260.47;4215929;28;5664;-61
2022/04/01 08:45:43;;;;;;;;;;;;;;;3.37;61.26;95270.31;4216449;28;5671;-61
2022/04/01 08:47:45;;;;;;;;;;;;;;;3.37;61.56;95271.13;4215872;28;5679;-60
2022/04/01 08:49:47;;;;;;;;;;;;;;;3.36;61.78;95268.69;4218063;28;6321;-61
2022/04/01 08:51:49;;;;;;;;;;;;;;;3.12;62.43;95278.50;4219076;28;5724;-61
2022/04/01 08:53:53;;;;;;;;;;;;;;;3.34;63.03;95284.56;4217577;28;6394;-61
2022/04/01 08:55:56;;;;;;;;;;;;;;;3.58;61.50;95287.81;4218260;28;5727;-60
2022/04/01 08:57:58;;;;;;;;;;;;;;;3.73;60.84;95284.13;4219196;28;5695;-61
2022/04/01 09:00:00;;;;;;;;;;;;;;;3.96;60.58;95294.38;4217527;28;5663;-60
2022/04/01 09:02:08;;;;;;;;;;;;;;;3.25;60.01;95295.31;4218851;28;6342;-60
2022/04/01 09:04:37;;;;;;;;;;;;;;;3.20;59.42;95295.88;4218588;28;5655;-60
2022/04/01 09:06:42;;;;;;;;;;;;;;;3.21;59.53;95303.50;4215665;28;5924;-62
2022/04/01 09:08:45;;;;;;;;;;;;;;;3.11;59.59;95302.19;4201738;28;5757;-61
2022/04/01 09:11:04;;;;;;;;;;;;;;;3.02;60.37;95305.88;4209204;28;6439;-60
2022/04/01 09:13:07;;;;;;;;;;;;;;;3.39;59.49;95308.31;4218422;28;5691;-61
2022/04/01 09:15:10;;;;;;;;;;;;;;;3.58;58.64;95314.75;4217007;28;6307;-60
2022/04/01 09:17:12;;;;;;;;;;;;;;;3.62;57.60;95309.94;4218640;28;5667;-60
2022/04/01 09:19:30;;;;;;;;;;;;;;;3.67;57.62;95316.25;4218630;28;5799;-61
2022/04/01 09:21:39;;;;;;;;;;;;;;;3.69;56.53;95324.72;4218912;28;5699;-60
2022/04/01 09:23:47;;;;;;;;;;;;;;;3.69;57.11;95319.50;4218772;28;5662;-60
2022/04/01 09:25:51;;;;;;;;;;;;;;;3.78;56.80;95330.63;4218533;28;5894;-61
2022/04/01 09:27:53;;;;;;;;;;;;;;;3.82;56.70;95325.84;4218576;28;5671;-60
2022/04/01 09:29:58;;;;;;;;;;;;;;;3.74;55.44;95329.41;4218615;28;5695;-60
2022/04/01 09:32:06;;;;;;;;;;;;;;;3.67;57.01;95338.97;4216923;28;5751;-60
2022/04/01 09:34:13;;;;;;;;;;;;;;;3.66;56.69;95335.53;4218122;28;5714;-61
2022/04/01 09:36:21;;;;;;;;;;;;;;;3.71;57.36;95337.59;4218495;28;5663;-61
2022/04/01 09:38:23;;;;;;;;;;;;;;;3.89;56.95;95335.38;4218618;28;6347;-60
2022/04/01 09:40:25;;;;;;;;;;;;;;;3.75;55.39;95344.09;4217256;28;5703;-60
2022/04/01 09:42:27;;;;;;;;;;;;;;;3.54;56.13;95344.88;4218658;28;5711;-61
2022/04/01 09:44:30;;;;;;;;;;;;;;;3.63;57.08;95342.97;4218335;28;5690;-62
2022/04/01 09:46:33;;;;;;;;;;;;;;;3.57;57.74;95354.13;4216780;28;6297;-60
2022/04/01 09:48:44;;;;;;;;;;;;;;;3.55;58.46;95369.19;4216838;28;5799;-60
2022/04/01 09:50:58;;;;;;;;;;;;;;;3.58;58.63;95367.00;4218286;28;5737;-61
2022/04/01 09:53:10;;;;;;;;;;;;;;;3.16;60.19;95375.56;4218346;28;5730;-60
2022/04/01 09:55:12;;;;;;;;;;;;;;;3.38;60.16;95374.63;4218215;28;5778;-61
2022/04/01 09:57:15;;;;;;;;;;;;;;;3.42;59.80;95377.69;4216740;28;5631;-60
2022/04/01 09:59:17;;;;;;;;;;;;;;;3.61;59.92;95378.91;4216990;28;5842;-60
2022/04/01 10:01:19;;;;;;;;;;;;;;;3.72;59.06;95381.84;4201268;28;5806;-61
2022/04/01 10:03:21;;;;;;;;;;;;;;;3.65;60.70;95380.16;4200879;28;5785;-61
2022/04/01 10:05:22;;;;;;;;;;;;;;;3.05;62.90;95395.09;4213749;28;5623;-60
2022/04/01 10:07:26;;;;;;;;;;;;;;;3.20;64.18;95395.91;4217892;28;5762;-62
2022/04/01 10:09:30;;;;;;;;;;;;;;;3.30;64.83;95395.63;4217614;28;5991;-60
2022/04/01 10:11:52;;;;;;;;;;;;;;;3.29;65.40;95396.63;4216095;28;7816;-60
2022/04/01 10:14:03;;;;;;;;;;;;;;;3.31;65.74;95399.88;4216883;28;5802;-60
2022/04/01 10:16:07;;;;;;;;;;;;;;;3.20;66.09;95395.91;4233253;28;5705;-62
2022/04/01 10:18:24;;;;;;;;;;;;;;;2.60;69.05;95409.94;4217274;28;5738;-61
2022/04/01 10:20:31;;;;;;;;;;;;;;;2.50;69.88;95413.78;4217667;28;5664;-60
2022/04/01 10:22:35;;;;;;;;;;;;;;;2.31;71.04;95415.88;4217789;28;5698;-60
2022/04/01 10:24:57;;;;;;;;;;;;;;;2.11;74.27;95413.91;4217672;28;5682;-60
2022/04/01 10:27:13;;;;;;;;;;;;;;;2.02;73.81;95427.00;4217583;28;5734;-60
2022/04/01 10:29:15;;;;;;;;;;;;;;;2.17;72.88;95434.91;4217484;28;5754;-61
2022/04/01 10:31:19;;;;;;;;;;;;;;;1.82;74.10;95436.28;4217029;28;5703;-60
2022/04/01 10:33:27;;;;;;;;;;;;;;;1.82;75.93;95446.69;4216684;28;6336;-61
2022/04/01 10:35:37;;;;;;;;;;;;;;;1.98;75.38;95445.78;4214827;28;5785;-60
2022/04/01 10:37:39;;;;;;;;;;;;;;;1.90;76.82;95440.59;4215426;28;5880;-60
2022/04/01 10:39:55;;;;;;;;;;;;;;;1.60;77.54;95442.25;4217401;28;5699;-60
2022/04/01 10:42:08;;;;;;;;;;;;;;;1.99;76.14;95445.59;4200502;28;5723;-60
2022/04/01 10:44:10;;;;;;;;;;;;;;;1.95;77.31;95448.75;4200473;28;5751;-61
2022/04/01 10:46:16;;;;;;;;;;;;;;;1.83;78.35;95447.50;4199149;28;5635;-61
2022/04/01 10:53:34;;;;;;;;;;;;;;;2.08;79.23;95446.38;4208011;28;5730;-61
2022/04/01 10:55:36;;;;;;;;;;;;;;;2.17;78.50;95444.53;4200593;28;5700;-60
2022/04/01 10:57:46;;;;;;;;;;;;;;;2.34;76.83;95449.44;4200260;28;5704;-61
2022/04/01 10:59:51;;;;;;;;;;;;;;;2.07;76.61;95444.75;4200420;28;5951;-60
2022/04/01 11:01:52;;;;;;;;;;;;;;;2.19;77.26;95447.75;4199860;28;6498;-62
2022/04/01 11:04:13;;;;;;;;;;;;;;;2.68;75.05;95448.16;4202077;28;6526;-60
2022/04/01 11:06:22;;;;;;;;;;;;;;;2.87;74.99;95449.47;4215645;28;5646;-61
2022/04/01 11:08:24;;;;;;;;;;;;;;;2.13;77.08;95454.47;4216924;28;5770;-61
2022/04/01 11:10:26;;;;;;;;;;;;;;;2.38;77.85;95451.69;4216707;28;5675;-60
2022/04/01 11:12:32;;;;;;;;;;;;;;;2.75;75.39;95454.31;4215230;28;5640;-61
2022/04/01 11:14:58;;;;;;;;;;;;;;;2.88;75.08;95454.50;4200204;28;5873;-60
2022/04/01 11:17:07;;;;;;;;;;;;;;;2.67;76.79;95459.59;4208556;28;5674;-60
2022/04/01 11:19:16;;;;;;;;;;;;;;;2.59;76.74;95460.47;4215239;28;5608;-60
2022/04/01 11:21:30;;;;;;;;;;;;;;;1.83;80.74;95460.53;4215576;28;5663;-60
2022/04/01 11:23:32;;;;;;;;;;;;;;;2.01;79.58;95461.06;4215357;28;6285;-60
2022/04/01 11:25:35;;;;;;;;;;;;;;;2.08;80.08;95464.63;4215485;28;5740;-60
2022/04/01 11:27:42;;;;;;;;;;;;;;;2.26;79.73;95470.34;4216645;28;5688;-60
2022/04/01 11:30:12;;;;;;;;;;;;;;;2.59;78.36;95464.88;4202409;28;5220;-59
2022/04/01 11:32:18;;;;;;;;;;;;;;;2.74;78.14;95476.19;4199895;28;5783;-60
2022/04/01 11:34:21;;;;;;;;;;;;;;;2.85;77.57;95470.53;4201145;28;5744;-59
2022/04/01 11:36:23;;;;;;;;;;;;;;;2.89;78.99;95471.78;4215427;28;5636;-59
2022/04/01 11:38:28;;;;;;;;;;;;;;;2.71;80.45;95463.47;4216514;28;5935;-59
2022/04/01 11:40:36;;;;;;;;;;;;;;;2.79;80.33;95473.84;4208856;28;6573;-62
2022/04/01 11:42:56;;;;;;;;;;;;;;;2.85;80.39;95475.75;4215596;28;5622;-60
2022/04/01 11:44:59;;;;;;;;;;;;;;;3.08;78.67;95472.28;4216542;28;5850;-60
2022/04/01 11:47:08;;;;;;;;;;;;;;;3.11;78.34;95479.75;4215052;28;5647;-60
2022/04/01 11:49:09;;;;;;;;;;;;;;;3.11;80.21;95474.53;4216351;28;5659;-60
2022/04/01 11:51:17;;;;;;;;;;;;;;;3.08;79.66;95470.47;4216537;28;5777;-60
2022/04/01 11:53:20;;;;;;;;;;;;;;;3.07;79.97;95478.50;4216572;28;5719;-60
2022/04/01 11:55:27;;;;;;;;;;;;;;;3.26;79.18;95477.94;4216275;28;5837;-60
2022/04/01 11:57:31;;;;;;;;;;;;;;;3.31;78.82;95480.84;4216733;28;5670;-60
2022/04/01 11:59:33;;;;;;;;;;;;;;;3.34;79.05;95477.88;4216535;28;5683;-59
2022/04/01 12:01:58;;;;;;;;;;;;;;;3.40;78.92;95474.53;4215159;28;5775;-60
2022/04/01 12:04:07;;;;;;;;;;;;;;;3.47;78.62;95483.25;4216045;28;5695;-70
2022/04/01 12:08:41;;;;;;;;;;;;;;;3.31;79.62;95470.41;4215944;28;5695;-71
2022/04/01 12:10:54;;;;;;;;;;;;;;;3.42;79.99;95476.97;4216202;28;5686;-71
2022/04/01 12:12:58;;;;;;;;;;;;;;;3.25;81.08;95470.28;4215874;28;5104;-72
2022/04/01 12:15:04;;;;;;;;;;;;;;;3.30;80.19;95474.00;4197628;28;5662;-71
2022/04/01 12:17:08;;;;;;;;;;;;;;;3.01;82.78;95479.19;4216528;28;5670;-59
2022/04/01 12:19:17;;;;;;;;;;;;;;;3.28;80.09;95470.72;4215596;28;5761;-59
2022/04/01 12:21:22;;;;;;;;;;;;;;;3.05;81.24;95475.22;4215682;28;5711;-59
2022/04/01 12:23:26;;;;;;;;;;;;;;;3.26;80.08;95477.94;4216881;28;5868;-59
2022/04/01 12:25:30;;;;;;;;;;;;;;;3.30;80.35;95471.38;4219615;28;5675;-59
2022/04/01 12:27:32;;;;;;;;;;;;;;;3.28;80.34;95469.94;4219722;28;5723;-59
2022/04/01 12:29:34;;;;;;;;;;;;;;;3.06;80.38;95476.84;4218329;28;6148;-59
2022/04/01 12:31:37;;;;;;;;;;;;;;;2.95;81.45;95485.13;4219059;28;5671;-59
2022/04/01 12:33:44;;;;;;;;;;;;;;;2.98;80.67;95477.75;4219054;28;5684;-59
2022/04/01 12:35:49;;;;;;;;;;;;;;;2.77;81.31;95477.63;4219411;28;5737;-62
2022/04/01 12:38:21;;;;;;;;;;;;;;;2.98;80.69;95474.34;4219477;28;5835;-59
2022/04/01 12:40:23;;;;;;;;;;;;;;;3.35;79.05;95470.84;4206407;28;5683;-60
2022/04/01 12:42:26;;;;;;;;;;;;;;;3.12;79.88;95468.31;4217852;28;5623;-60
2022/04/01 12:44:30;;;;;;;;;;;;;;;3.35;78.85;95474.25;4219441;28;5679;-60
2022/04/01 12:46:35;;;;;;;;;;;;;;;3.22;78.65;95458.41;4219320;28;5734;-62
2022/04/01 12:48:47;;;;;;;;;;;;;;;3.22;77.61;95458.41;4217826;28;5635;-67
2022/04/01 12:50:49;;;;;;;;;;;;;;;3.39;76.66;95461.63;4218221;28;5619;-63
2022/04/01 12:52:50;;;;;;;;;;;;;;;2.99;76.90;95460.28;4201260;28;5626;-61
2022/04/01 12:54:59;;;;;;;;;;;;;;;2.93;79.10;95457.38;4219423;28;5774;-63
2022/04/01 12:57:04;;;;;;;;;;;;;;;2.52;81.25;95456.16;4219339;28;5667;-64
2022/04/01 12:59:06;;;;;;;;;;;;;;;2.84;79.43;95450.66;4219097;28;5674;-59
2022/04/01 13:01:08;;;;;;;;;;;;;;;3.24;77.94;95453.81;4218813;28;5783;-64
2022/04/01 13:03:13;;;;;;;;;;;;;;;3.45;77.29;95450.47;4218689;28;5687;-59
2022/04/01 13:05:16;;;;;;;;;;;;;;;3.30;77.44;95449.69;4218947;28;5699;-65
2022/04/01 13:07:21;;;;;;;;;;;;;;;3.34;77.27;95458.78;4218945;28;5663;-60
2022/04/01 13:09:23;;;;;;;;;;;;;;;2.98;80.33;95456.06;4217837;28;5619;-60
2022/04/01 13:11:38;;;;;;;;;;;;;;;3.13;77.51;95457.69;4218490;28;5758;-59
2022/04/01 13:13:41;;;;;;;;;;;;;;;3.16;77.39;95462.53;4217646;28;5766;-60
2022/04/01 13:15:50;;;;;;;;;;;;;;;3.13;77.70;95462.91;4218815;28;5712;-59
2022/04/01 13:17:57;;;;;;;;;;;;;;;3.15;77.63;95465.34;4219003;28;5766;-59
2022/04/01 13:19:59;;;;;;;;;;;;;;;3.05;77.87;95467.38;4219157;28;5672;-61
2022/04/01 13:22:04;;;;;;;;;;;;;;;3.30;76.75;95463.56;4183945;28;5685;-60
2022/04/01 13:24:05;;;;;;;;;;;;;;;3.44;76.55;95459.31;4201898;28;5696;-59
2022/04/01 13:26:07;;;;;;;;;;;;;;;3.31;77.94;95459.94;4215341;28;5715;-59
2022/04/01 13:28:11;;;;;;;;;;;;;;;3.24;78.19;95459.03;4218622;28;5896;-60
2022/04/01 13:30:16;;;;;;;;;;;;;;;3.26;77.60;95461.47;4201778;28;5784;-59
2022/04/01 13:32:18;;;;;;;;;;;;;;;3.37;77.12;95459.22;4201630;28;5784;-59
2022/04/01 13:34:25;;;;;;;;;;;;;;;3.46;76.92;95463.34;4184103;28;5645;-60
2022/04/01 13:36:27;;;;;;;;;;;;;;;2.83;80.47;95462.06;4201836;28;5696;-60
2022/04/01 13:38:30;;;;;;;;;;;;;;;2.48;81.54;95457.47;4201674;28;5696;-60
2022/04/01 13:40:33;;;;;;;;;;;;;;;2.36;81.18;95461.47;4201598;28;6294;-60
2022/04/01 13:42:36;;;;;;;;;;;;;;;2.19;81.71;95464.22;4201645;28;5712;-59
2022/04/01 13:44:38;;;;;;;;;;;;;;;2.52;80.95;95466.59;4201477;28;5708;-59
2022/04/01 13:46:40;;;;;;;;;;;;;;;2.77;80.44;95465.38;4201757;28;6339;-59
2022/04/01 13:48:43;;;;;;;;;;;;;;;2.90;79.63;95467.38;4201130;28;5771;-61
2022/04/01 13:50:45;;;;;;;;;;;;;;;2.79;80.00;95473.03;4201583;28;6476;-60
2022/04/01 13:52:46;;;;;;;;;;;;;;;2.85;79.58;95470.53;4200244;28;5639;-59
2022/04/01 13:54:49;;;;;;;;;;;;;;;3.08;79.12;95461.84;4199910;28;5630;-59
2022/04/01 13:56:51;;;;;;;;;;;;;;;3.14;78.64;95471.53;4212827;28;5711;-60
2022/04/01 13:58:53;;;;;;;;;;;;;;;2.88;79.35;95469.38;4212712;28;5637;-60
2022/04/01 14:00:55;;;;;;;;;;;;;;;2.87;79.50;95455.50;4212042;28;6988;-60
2022/04/01 14:02:57;;;;;;;;;;;;;;;3.08;78.71;95464.44;4207011;28;5701;-60
2022/04/01 14:04:58;;;;;;;;;;;;;;;3.07;78.77;95460.22;4198959;28;5726;-60
2022/04/01 14:07:07;;;;;;;;;;;;;;;3.21;78.29;95464.63;4215173;28;5786;-60
2022/04/01 14:09:14;;;;;;;;;;;;;;;3.19;78.02;95464.00;4215237;28;5781;-60
2022/04/01 14:11:36;;;;;;;;;;;;;;;3.10;78.78;95458.03;4214777;28;5954;-59
2022/04/01 14:13:38;;;;;;;;;;;;;;;2.75;80.50;95454.31;4214824;28;6405;-60
2022/04/01 14:15:53;;;;;;;;;;;;;;;2.68;80.41;95456.00;4214905;28;5786;-59
2022/04/01 14:17:54;;;;;;;;;;;;;;;2.78;79.72;95458.34;4214731;28;5767;-58
2022/04/01 14:19:57;;;;;;;;;;;;;;;2.93;79.15;95454.78;4212882;28;5750;-59
2022/04/01 14:21:59;;;;;;;;;;;;;;;2.80;80.01;95451.16;4214876;28;5765;-59
2022/04/01 14:24:02;;;;;;;;;;;;;;;2.76;80.18;95439.47;4214974;28;5765;-59
2022/04/01 14:26:06;;;;;;;;;;;;;;;2.92;79.45;95441.91;4215055;28;5759;-60
2022/04/01 14:28:07;;;;;;;;;;;;;;;3.02;79.25;95436.44;4214663;28;5766;-60
2022/04/01 14:30:19;;;;;;;;;;;;;;;3.01;79.46;95437.41;4212872;28;5742;-60
2022/04/01 14:32:21;;;;;;;;;;;;;;;3.03;79.03;95431.03;4214620;28;5807;-60
2022/04/01 14:34:36;;;;;;;;;;;;;;;3.02;78.88;95428.59;4214406;28;6460;-60
2022/04/01 14:36:38;;;;;;;;;;;;;;;3.06;78.61;95433.28;4212920;28;7417;-60
2022/04/01 14:38:40;;;;;;;;;;;;;;;3.17;78.38;95432.00;4214821;28;5827;-60
2022/04/01 14:40:44;;;;;;;;;;;;;;;2.98;79.54;95432.56;4214703;28;6511;-60
2022/04/01 14:42:46;;;;;;;;;;;;;;;2.87;79.82;95439.03;4213208;28;5719;-60
2022/04/01 14:44:48;;;;;;;;;;;;;;;2.72;80.35;95436.41;4214608;28;5769;-60
2022/04/01 14:46:51;;;;;;;;;;;;;;;2.80;80.01;95430.28;4213622;28;5864;-60
2022/04/01 14:48:54;;;;;;;;;;;;;;;3.06;79.27;95425.47;4214205;28;6524;-60
2022/04/01 14:50:56;;;;;;;;;;;;;;;3.20;78.31;95434.28;4214565;28;5730;-61
2022/04/01 14:53:00;;;;;;;;;;;;;;;3.11;78.88;95437.97;4208227;28;5754;-60
2022/04/01 14:55:01;;;;;;;;;;;;;;;3.03;79.30;95438.03;4208580;28;6454;-60
2022/04/01 14:57:04;;;;;;;;;;;;;;;2.89;79.43;95444.88;4205200;28;5897;-58
2022/04/01 14:59:05;;;;;;;;;;;;;;;2.56;80.68;95454.81;4201293;28;5779;-59
2022/04/01 15:01:07;;;;;;;;;;;;;;;2.73;80.23;95451.06;4200381;28;5777;-60
2022/04/01 15:03:09;;;;;;;;;;;;;;;2.41;81.98;95446.94;4193785;28;5785;-59
2022/04/01 15:05:15;;;;;;;;;;;;;;;2.41;82.23;95448.75;4208601;28;5766;-60
2022/04/01 15:07:16;;;;;;;;;;;;;;;2.61;81.71;95440.25;4200094;28;5790;-60
2022/04/01 15:09:26;;;;;;;;;;;;;;;2.27;83.04;95450.31;4210655;28;5977;-59
2022/04/01 15:11:28;;;;;;;;;;;;;;;2.29;83.39;95443.94;4205730;28;5774;-60
2022/04/01 15:13:32;;;;;;;;;;;;;;;2.57;82.17;95445.97;4205163;28;5778;-59
2022/04/01 15:15:34;;;;;;;;;;;;;;;2.70;81.06;95451.41;4209791;28;5803;-59
2022/04/01 15:17:38;;;;;;;;;;;;;;;2.78;80.14;95453.16;4199005;28;5762;-59
2022/04/01 15:19:40;;;;;;;;;;;;;;;2.74;80.54;95457.09;4206621;28;5765;-59
2022/04/01 15:21:42;;;;;;;;;;;;;;;2.60;80.35;95458.66;4204582;28;5862;-59
2022/04/01 15:23:43;;;;;;;;;;;;;;;2.59;80.56;95463.06;4211256;28;5876;-60
2022/04/01 15:25:45;;;;;;;;;;;;;;;2.70;80.24;95456.63;4203231;28;5818;-60
2022/04/01 15:27:47;;;;;;;;;;;;;;;2.76;80.31;95463.75;4213460;28;5770;-60
2022/04/01 15:29:49;;;;;;;;;;;;;;;2.80;80.52;95466.81;4203995;28;5919;-60
2022/04/01 15:31:50;;;;;;;;;;;;;;;2.54;81.67;95470.63;4204660;28;5782;-60
2022/04/01 15:33:52;;;;;;;;;;;;;;;2.55;81.34;95466.22;4201341;28;5795;-59
2022/04/01 15:35:54;;;;;;;;;;;;;;;2.72;80.48;95465.13;4197213;28;5795;-60
2022/04/01 15:38:01;;;;;;;;;;;;;;;2.85;80.11;95474.94;4197035;28;5882;-60
2022/04/01 15:40:09;;;;;;;;;;;;;;;2.95;80.14;95470.28;4196880;28;5861;-60